Topinabee, MI

10:34 PM EDT on September 04, 2015 (GMT -0400)
Northwest Burt Lake | | Change Station
CLOSE
Current Station
Personal Weather Station
Location: Brutus, MI
Elevation: 626 ft
Nearby Weather Stations

Elev 626 ft 45.51 °N, 84.70 °W | Updated 12 minutes ago

Partly Cloudy
Partly Cloudy
72.0 °F
Feels Like 72.0 °F
N
3.0
Wind Variable Wind from ENE
Gusts 5.0 mph

Today
High -- | Low -- °F
--% Chance of Precip.
Yesterday
High -- | Low -- °F
Precip. -- in
7:03 AM 8:10 PM
Waning Gibbous, 53% visible
Pressure 30.09 in
Visibility 9.0 miles
Clouds Scattered Clouds 4300 ft
Scattered Clouds 5000 ft
Dew Point 69 °F
Humidity 90%
Rainfall 0.02 in
Snow Depth Not available.
UV 0 out of 12
Pollen 10.10 out of 12
Air Quality Not available.
Flu Activity Not available.
METAR KPLN 050154Z AUTO 10004KT 9SM SCT043 SCT050 21/19 A3009 RMK AO2 SLP187 T02110194
Pressure 30.09 in
Visibility 9.0 miles
Clouds Scattered Clouds 4300 ft
Scattered Clouds 5000 ft
Dew Point 69 °F
Humidity 90%
Rainfall 0.02 in
Snow Depth Not available.
UV 0 out of 12
Pollen 10.10 out of 12
Air Quality Not available.
Flu Activity Not available.
METAR KPLN 050154Z AUTO 10004KT 9SM SCT043 SCT050 21/19 A3009 RMK AO2 SLP187 T02110194
Nowcast | as of 10:00 PM EDT on September 4, 2015

At 11 PM...mostly cloudy. Areas of fog. Temperature 68. East winds 7 mph. At 1 am...partly cloudy. Areas of fog. Temperature 67. East winds 7 mph. At 3 am...mostly cloudy. Areas of fog. Temperature 66. Southeast winds 6 mph. At 5 am...mostly cloudy. Areas of fog. Temperature 66. Light winds.

×

10-Day Weather Forecast

×

Almanac

Astronomy

Sep. 04, 2015 Rise Set
Actual Time
Civil Twilight
Nautical Twilight
Astronomical Twilight
Moon
Length of Visible Light
Length of Day
Tomorrow will be .
, % of the Moon is Illuminated

Today's Extremes

State Highs State Lows

Community

WunderPhotos

Upload Photos

1,852,393 photos uploaded!

WunderBlogs® & News

Nearby

Air Quality

  Air Quality AQ Index Pollutant
Not available.

Snow Depth

Station Depth Elevation

Earthquake Activity

City Distance Mag. Time & Date
Minimum magnitude displayed is 2.5.

Coastal Water Temperatures

Place Temperature

Stations

Nearby Weather Stations

Station Location Temp. Windchill Dew Point Humidity Wind Precip. Elev Updated Type